createdAt,value
2018-07-29T00:00:29.110Z,0.00
2018-07-29T00:01:29.079Z,0.00
2018-07-29T00:02:29.086Z,0.00
2018-07-29T00:03:29.002Z,0.00
2018-07-29T00:04:29.425Z,0.00
2018-07-29T00:05:28.925Z,0.00
2018-07-29T00:06:28.880Z,0.00
2018-07-29T00:07:28.842Z,0.00
2018-07-29T00:08:28.820Z,0.00
2018-07-29T00:09:28.779Z,0.00
2018-07-29T00:10:28.734Z,0.00
2018-07-29T00:11:28.678Z,0.00
2018-07-29T00:12:28.638Z,0.00
2018-07-29T00:13:28.641Z,0.00
2018-07-29T00:14:28.610Z,0.00
2018-07-29T00:15:28.546Z,0.00
2018-07-29T00:16:28.517Z,0.00
2018-07-29T00:17:28.482Z,0.00
2018-07-29T00:18:28.477Z,0.00
2018-07-29T00:19:28.427Z,0.00
2018-07-29T00:20:28.345Z,0.00
2018-07-29T00:21:28.321Z,0.00
2018-07-29T00:22:28.275Z,0.00
2018-07-29T00:23:28.280Z,0.00
2018-07-29T00:24:28.225Z,0.00
2018-07-29T00:25:28.148Z,0.00
2018-07-29T00:26:28.150Z,0.00
2018-07-29T00:27:28.080Z,0.00
2018-07-29T00:28:28.062Z,0.00
2018-07-29T00:29:28.023Z,0.00
2018-07-29T00:30:28.092Z,0.00
2018-07-29T00:31:27.947Z,0.00
2018-07-29T00:32:27.952Z,0.00
2018-07-29T00:33:27.862Z,0.00
2018-07-29T00:34:27.829Z,0.00
2018-07-29T00:35:27.825Z,0.00
2018-07-29T00:36:27.747Z,0.00
2018-07-29T00:37:27.788Z,0.00
2018-07-29T00:38:27.674Z,0.00
2018-07-29T00:39:27.683Z,0.00
2018-07-29T00:40:27.740Z,0.00
2018-07-29T00:41:27.590Z,0.00
2018-07-29T00:42:27.552Z,0.00
2018-07-29T00:43:27.504Z,0.00
2018-07-29T00:44:27.467Z,0.00
2018-07-29T00:45:27.426Z,0.00
2018-07-29T00:46:27.445Z,0.00
2018-07-29T00:47:27.356Z,0.00
2018-07-29T00:48:27.399Z,0.00
2018-07-29T00:49:27.283Z,0.00
2018-07-29T00:50:27.247Z,0.00
2018-07-29T00:51:27.227Z,0.00
2018-07-29T00:52:27.148Z,0.00
2018-07-29T00:53:27.136Z,0.00
2018-07-29T00:54:27.103Z,0.00
2018-07-29T00:55:27.054Z,0.00
2018-07-29T00:56:27.058Z,0.00
2018-07-29T00:57:26.974Z,0.00
2018-07-29T00:58:26.959Z,0.00
2018-07-29T00:59:26.911Z,0.00
2018-07-29T01:00:37.087Z,0.00
2018-07-29T01:01:26.818Z,0.00
2018-07-29T01:02:26.796Z,0.00
2018-07-29T01:03:26.750Z,0.00
2018-07-29T01:04:26.727Z,0.00
2018-07-29T01:05:26.668Z,0.00
2018-07-29T01:06:26.656Z,0.00
2018-07-29T01:07:26.611Z,0.00
2018-07-29T01:08:26.561Z,0.00
2018-07-29T01:09:26.535Z,0.00
2018-07-29T01:10:26.502Z,0.00
2018-07-29T01:11:26.467Z,0.00
2018-07-29T01:12:26.438Z,0.00
2018-07-29T01:13:26.372Z,0.00
2018-07-29T01:14:26.377Z,0.00
2018-07-29T01:15:26.341Z,0.00
2018-07-29T01:16:26.296Z,0.00
2018-07-29T01:17:26.258Z,0.00
2018-07-29T01:18:26.241Z,0.00
2018-07-29T01:19:26.162Z,0.00
2018-07-29T01:20:26.128Z,0.00
2018-07-29T01:21:26.108Z,0.00
2018-07-29T01:22:26.052Z,0.00
2018-07-29T01:23:26.061Z,0.00
2018-07-29T01:24:26.042Z,0.00
2018-07-29T01:25:25.972Z,0.00
2018-07-29T01:26:25.893Z,0.00
2018-07-29T01:27:25.879Z,0.00
2018-07-29T01:28:25.878Z,0.00
2018-07-29T01:29:25.778Z,0.00
2018-07-29T01:30:25.757Z,0.00
2018-07-29T01:31:25.741Z,0.00
2018-07-29T01:32:25.699Z,0.00
2018-07-29T01:33:25.766Z,0.00
2018-07-29T01:34:25.621Z,0.00
2018-07-29T01:35:25.580Z,0.00
2018-07-29T01:36:25.568Z,0.00
2018-07-29T01:37:25.497Z,0.00
2018-07-29T01:38:25.455Z,0.00
2018-07-29T01:39:25.430Z,0.00
2018-07-29T01:40:25.368Z,0.00
2018-07-29T01:41:25.355Z,0.00
2018-07-29T01:42:25.311Z,0.00
2018-07-29T01:43:25.294Z,0.00
2018-07-29T01:44:25.266Z,0.00
2018-07-29T01:45:25.202Z,0.00
2018-07-29T01:46:25.167Z,0.00
2018-07-29T01:47:25.108Z,0.00
2018-07-29T01:48:25.071Z,0.00
2018-07-29T01:49:25.130Z,0.00
2018-07-29T01:50:25.039Z,0.00
2018-07-29T01:51:24.994Z,0.00
2018-07-29T01:52:24.945Z,0.00
2018-07-29T01:53:24.904Z,0.00
2018-07-29T01:54:24.915Z,0.00
2018-07-29T01:55:24.851Z,0.00
2018-07-29T01:56:24.803Z,0.00
2018-07-29T01:57:24.751Z,0.00
2018-07-29T01:58:24.731Z,0.00
2018-07-29T01:59:35.675Z,0.00
2018-07-29T02:00:24.634Z,0.00
2018-07-29T02:01:24.620Z,0.00
2018-07-29T02:02:24.570Z,0.00
2018-07-29T02:03:24.550Z,0.00
2018-07-29T02:04:24.497Z,0.00
2018-07-29T02:05:24.479Z,0.00
2018-07-29T02:06:24.412Z,0.00
2018-07-29T02:07:24.378Z,0.00
2018-07-29T02:08:24.422Z,0.00
2018-07-29T02:09:24.375Z,0.00
2018-07-29T02:10:24.307Z,0.00
2018-07-29T02:11:24.325Z,0.00
2018-07-29T02:12:24.250Z,0.00
2018-07-29T02:13:24.162Z,0.00
2018-07-29T02:14:24.112Z,0.00
2018-07-29T02:15:24.078Z,0.00
2018-07-29T02:16:24.057Z,0.00
2018-07-29T02:17:24.016Z,0.00
2018-07-29T02:18:23.975Z,0.00
2018-07-29T02:19:23.997Z,0.00
2018-07-29T02:20:23.929Z,0.00
2018-07-29T02:21:23.943Z,0.00
2018-07-29T02:22:23.820Z,0.00
2018-07-29T02:23:23.797Z,0.00
2018-07-29T02:24:23.768Z,0.00
2018-07-29T02:25:23.743Z,0.00
2018-07-29T02:26:23.717Z,0.00
2018-07-29T02:27:23.629Z,0.00
2018-07-29T02:28:23.596Z,0.00
2018-07-29T02:29:23.559Z,0.00
2018-07-29T02:30:23.525Z,0.00
2018-07-29T02:31:23.531Z,0.00
2018-07-29T02:32:23.477Z,0.00
2018-07-29T02:33:23.454Z,0.00
2018-07-29T02:34:23.410Z,0.00
2018-07-29T02:35:23.331Z,0.00
2018-07-29T02:36:23.337Z,0.00
2018-07-29T02:37:23.322Z,0.00
2018-07-29T02:38:23.266Z,0.00
2018-07-29T02:39:23.211Z,0.00
2018-07-29T02:40:23.177Z,0.00
2018-07-29T02:41:23.161Z,0.00
2018-07-29T02:42:23.116Z,0.00
2018-07-29T02:43:23.068Z,0.00
2018-07-29T02:44:23.049Z,0.00
2018-07-29T02:45:22.998Z,0.00
2018-07-29T02:46:22.950Z,0.00
2018-07-29T02:47:22.975Z,0.00
2018-07-29T02:48:22.849Z,0.00
2018-07-29T02:49:22.819Z,0.00
2018-07-29T02:50:22.785Z,0.00
2018-07-29T02:51:22.785Z,0.00
2018-07-29T02:52:22.767Z,0.00
2018-07-29T02:53:22.698Z,0.00
2018-07-29T02:54:22.642Z,0.00
2018-07-29T02:55:22.602Z,0.00
2018-07-29T02:56:22.615Z,0.00
2018-07-29T02:57:22.597Z,0.00
2018-07-29T02:58:22.546Z,0.00
2018-07-29T02:59:31.650Z,0.00
2018-07-29T03:00:22.418Z,0.00
2018-07-29T03:01:22.371Z,0.00
2018-07-29T03:02:22.343Z,0.00
2018-07-29T03:03:22.361Z,0.00
2018-07-29T03:04:22.281Z,0.00
2018-07-29T03:05:22.227Z,0.00
2018-07-29T03:06:22.178Z,0.00
2018-07-29T03:07:22.161Z,0.00
2018-07-29T03:08:22.145Z,0.00
2018-07-29T03:09:22.078Z,0.00
2018-07-29T03:10:22.039Z,0.00
2018-07-29T03:11:22.003Z,0.00
2018-07-29T03:12:21.969Z,0.00
2018-07-29T03:13:21.948Z,0.00
2018-07-29T03:14:21.896Z,4.00
2018-07-29T03:15:21.868Z,4.00
2018-07-29T03:16:21.815Z,4.00
2018-07-29T03:17:21.776Z,0.00
2018-07-29T03:18:31.710Z,4.00
2018-07-29T03:19:21.719Z,4.00
2018-07-29T03:20:21.687Z,8.00
2018-07-29T03:21:21.645Z,4.00
2018-07-29T03:22:21.611Z,8.00
2018-07-29T03:23:21.553Z,8.00
2018-07-29T03:24:21.551Z,8.00
2018-07-29T03:25:21.522Z,12.00
2018-07-29T03:26:21.482Z,12.00
2018-07-29T03:27:21.427Z,16.00
2018-07-29T03:28:21.380Z,20.00
2018-07-29T03:29:21.387Z,20.00
2018-07-29T03:30:21.302Z,24.00
2018-07-29T03:31:21.301Z,28.00
2018-07-29T03:32:21.247Z,28.00
2018-07-29T03:33:21.224Z,32.00
2018-07-29T03:34:21.173Z,36.00
2018-07-29T03:35:21.139Z,36.00
2018-07-29T03:36:21.110Z,44.00
2018-07-29T03:37:21.107Z,48.00
2018-07-29T03:38:31.315Z,56.00
2018-07-29T03:39:20.951Z,64.00
2018-07-29T03:40:20.943Z,68.00
2018-07-29T03:41:20.900Z,84.00
2018-07-29T03:42:20.874Z,92.00
2018-07-29T03:43:20.853Z,108.00
2018-07-29T03:44:20.803Z,124.00
2018-07-29T03:45:20.780Z,140.00
2018-07-29T03:46:20.708Z,152.00
2018-07-29T03:47:20.675Z,164.00
2018-07-29T03:48:20.637Z,176.00
2018-07-29T03:49:20.634Z,192.00
2018-07-29T03:50:20.566Z,212.00
2018-07-29T03:51:20.554Z,236.00
2018-07-29T03:52:20.476Z,272.00
2018-07-29T03:53:20.445Z,316.00
2018-07-29T03:54:20.428Z,360.00
2018-07-29T03:55:20.368Z,412.00
2018-07-29T03:56:20.363Z,468.00
2018-07-29T03:57:20.301Z,528.00
2018-07-29T03:58:20.276Z,576.00
2018-07-29T03:59:20.260Z,612.00
2018-07-29T04:00:20.197Z,640.00
2018-07-29T04:01:20.218Z,668.00
2018-07-29T04:02:20.116Z,696.00
2018-07-29T04:03:20.096Z,732.00
2018-07-29T04:04:20.064Z,744.00
2018-07-29T04:05:20.040Z,772.00
2018-07-29T04:06:19.982Z,824.00
2018-07-29T04:07:19.982Z,864.00
2018-07-29T04:08:19.936Z,904.00
2018-07-29T04:09:19.871Z,944.00
2018-07-29T04:10:19.845Z,992.00
2018-07-29T04:11:19.832Z,1036.00
2018-07-29T04:12:19.814Z,1068.00
2018-07-29T04:13:19.729Z,1088.00
2018-07-29T04:14:19.690Z,1100.00
2018-07-29T04:15:19.656Z,1104.00
2018-07-29T04:16:19.620Z,1096.00
2018-07-29T04:17:19.603Z,1080.00
2018-07-29T04:18:19.575Z,1096.00
2018-07-29T04:19:19.507Z,1116.00
2018-07-29T04:20:19.457Z,1148.00
2018-07-29T04:21:19.424Z,1180.00
2018-07-29T04:22:19.430Z,1228.00
2018-07-29T04:23:19.355Z,1272.00
2018-07-29T04:24:19.337Z,1316.00
2018-07-29T04:25:19.275Z,1368.00
2018-07-29T04:26:19.260Z,1424.00
2018-07-29T04:27:19.203Z,1496.00
2018-07-29T04:28:19.175Z,1584.00
2018-07-29T04:29:19.127Z,1684.00
2018-07-29T04:30:19.096Z,1776.00
2018-07-29T04:31:19.070Z,1856.00
2018-07-29T04:32:19.005Z,1912.00
2018-07-29T04:33:19.002Z,1948.00
2018-07-29T04:34:18.965Z,2004.00
2018-07-29T04:35:18.895Z,2088.00
2018-07-29T04:36:18.878Z,2208.00
2018-07-29T04:37:18.831Z,2364.00
2018-07-29T04:38:18.830Z,2540.00
2018-07-29T04:39:18.812Z,2672.00
2018-07-29T04:40:18.720Z,2836.00
2018-07-29T04:41:18.685Z,3048.00
2018-07-29T04:42:18.695Z,3252.00
2018-07-29T04:43:18.620Z,3440.00
2018-07-29T04:44:18.611Z,3596.00
2018-07-29T04:45:18.614Z,3728.00
2018-07-29T04:46:18.554Z,3872.00
2018-07-29T04:47:18.487Z,4060.00
2018-07-29T04:48:18.414Z,4260.00
2018-07-29T04:49:18.412Z,4488.00
2018-07-29T04:50:18.364Z,4720.00
2018-07-29T04:51:18.326Z,4948.00
2018-07-29T04:52:18.278Z,5188.00
2018-07-29T04:53:18.271Z,5440.00
2018-07-29T04:54:18.235Z,5640.00
2018-07-29T04:55:18.170Z,5688.00
2018-07-29T04:56:18.144Z,5544.00
2018-07-29T04:57:18.101Z,5308.00
2018-07-29T04:58:18.124Z,5008.00
2018-07-29T04:59:18.029Z,4660.00
2018-07-29T05:00:18.015Z,4416.00
2018-07-29T05:01:17.957Z,4316.00
2018-07-29T05:02:17.921Z,4264.00
2018-07-29T05:03:17.901Z,4228.00
2018-07-29T05:04:17.843Z,4236.00
2018-07-29T05:05:17.839Z,4280.00
2018-07-29T05:06:17.752Z,4356.00
2018-07-29T05:07:17.732Z,4464.00
2018-07-29T05:08:17.701Z,4588.00
2018-07-29T05:09:17.664Z,4720.00
2018-07-29T05:10:17.660Z,4848.00
2018-07-29T05:11:17.610Z,4988.00
2018-07-29T05:12:17.572Z,5132.00
2018-07-29T05:13:17.499Z,5256.00
2018-07-29T05:14:17.475Z,5360.00
2018-07-29T05:15:17.461Z,5464.00
2018-07-29T05:16:17.438Z,5552.00
2018-07-29T05:17:17.378Z,5560.00
2018-07-29T05:18:17.365Z,5460.00
2018-07-29T05:19:17.311Z,5312.00
2018-07-29T05:20:17.265Z,5144.00
2018-07-29T05:21:17.241Z,4992.00
2018-07-29T05:22:17.192Z,4896.00
2018-07-29T05:23:17.153Z,4896.00
2018-07-29T05:24:17.127Z,4992.00
2018-07-29T05:25:17.102Z,5108.00
2018-07-29T05:26:17.068Z,5204.00
2018-07-29T05:27:16.997Z,5260.00
2018-07-29T05:28:16.967Z,5272.00
2018-07-29T05:29:16.930Z,5268.00
2018-07-29T05:30:16.885Z,5276.00
2018-07-29T05:31:16.881Z,5308.00
2018-07-29T05:32:16.806Z,5352.00
2018-07-29T05:33:16.784Z,5392.00
2018-07-29T05:34:16.746Z,5440.00
2018-07-29T05:35:16.711Z,5496.00
2018-07-29T05:36:16.700Z,5540.00
2018-07-29T05:37:25.816Z,5552.00
2018-07-29T05:38:16.591Z,5528.00
2018-07-29T05:39:16.556Z,5524.00
2018-07-29T05:40:16.546Z,5548.00
2018-07-29T05:41:16.488Z,5636.00
2018-07-29T05:42:16.467Z,5808.00
2018-07-29T05:43:16.417Z,6044.00
2018-07-29T05:44:16.378Z,6304.00
2018-07-29T05:45:16.432Z,6488.00
2018-07-29T05:46:16.314Z,6560.00
2018-07-29T05:47:16.306Z,6516.00
2018-07-29T05:48:16.225Z,6512.00
2018-07-29T05:49:16.194Z,6676.00
2018-07-29T05:50:16.198Z,7000.00
2018-07-29T05:51:16.133Z,7420.00
2018-07-29T05:52:16.136Z,7996.00
2018-07-29T05:53:16.093Z,8796.00
2018-07-29T05:54:16.048Z,9792.00
2018-07-29T05:55:16.000Z,10752.00
2018-07-29T05:56:15.967Z,11376.00
2018-07-29T05:57:26.381Z,11832.00
2018-07-29T05:58:15.888Z,12180.00
2018-07-29T05:59:15.830Z,12444.00
2018-07-29T06:00:15.809Z,12368.00
2018-07-29T06:01:15.761Z,12512.00
2018-07-29T06:02:15.742Z,12736.00
2018-07-29T06:03:15.716Z,12928.00
2018-07-29T06:04:15.707Z,13164.00
2018-07-29T06:05:15.631Z,13480.00
2018-07-29T06:06:15.582Z,14032.00
2018-07-29T06:07:15.549Z,14532.00
2018-07-29T06:08:15.513Z,14552.00
2018-07-29T06:09:15.505Z,14360.00
2018-07-29T06:10:15.450Z,14224.00
2018-07-29T06:11:15.415Z,14128.00
2018-07-29T06:12:15.381Z,13944.00
2018-07-29T06:13:15.340Z,13640.00
2018-07-29T06:14:15.332Z,13372.00
2018-07-29T06:15:15.280Z,13400.00
2018-07-29T06:16:15.241Z,13608.00
2018-07-29T06:17:15.205Z,13772.00
2018-07-29T06:18:15.159Z,13948.00
2018-07-29T06:19:15.145Z,14068.00
2018-07-29T06:20:15.086Z,14108.00
2018-07-29T06:21:15.046Z,14052.00
2018-07-29T06:22:15.022Z,13844.00
2018-07-29T06:23:15.005Z,13184.00
2018-07-29T06:24:14.982Z,12176.00
2018-07-29T06:25:14.917Z,11852.00
2018-07-29T06:26:14.875Z,10784.00
2018-07-29T06:27:14.845Z,10136.00
2018-07-29T06:28:14.815Z,13316.00
2018-07-29T06:29:14.784Z,21024.00
2018-07-29T06:30:14.759Z,26624.00
2018-07-29T06:31:14.786Z,30720.00
2018-07-29T06:32:14.665Z,31008.00
2018-07-29T06:33:14.630Z,28512.00
2018-07-29T06:34:14.618Z,29184.00
2018-07-29T06:35:14.589Z,32512.00
2018-07-29T06:36:14.536Z,34592.00
2018-07-29T06:37:24.891Z,37216.00
2018-07-29T06:38:14.459Z,28032.00
2018-07-29T06:39:14.427Z,29856.00
2018-07-29T06:40:14.419Z,36032.00
2018-07-29T06:41:14.363Z,38144.00
2018-07-29T06:42:14.322Z,36640.00
2018-07-29T06:43:14.308Z,37312.00
2018-07-29T06:44:14.290Z,29184.00
2018-07-29T06:45:14.282Z,28096.00
2018-07-29T06:46:14.209Z,27040.00
2018-07-29T06:47:14.167Z,22784.00
2018-07-29T06:48:14.130Z,22944.00
2018-07-29T06:49:14.091Z,42624.00
2018-07-29T06:50:14.062Z,41536.00
2018-07-29T06:51:14.052Z,26016.00
2018-07-29T06:52:13.997Z,26848.00
2018-07-29T06:53:13.967Z,23968.00
2018-07-29T06:54:13.950Z,22016.00
2018-07-29T06:55:13.906Z,21856.00
2018-07-29T06:56:13.893Z,22336.00
2018-07-29T06:57:13.834Z,22080.00
2018-07-29T06:58:13.816Z,21856.00
2018-07-29T06:59:13.799Z,22368.00
2018-07-29T07:00:13.732Z,22976.00
2018-07-29T07:01:13.727Z,23200.00
2018-07-29T07:02:13.671Z,23872.00
2018-07-29T07:03:13.688Z,24640.00
2018-07-29T07:04:13.630Z,24608.00
2018-07-29T07:05:13.580Z,25600.00
2018-07-29T07:06:13.558Z,24800.00
2018-07-29T07:07:13.577Z,23424.00
2018-07-29T07:08:13.498Z,22816.00
2018-07-29T07:09:13.448Z,22944.00
2018-07-29T07:10:13.408Z,24320.00
2018-07-29T07:11:13.380Z,25792.00
2018-07-29T07:12:13.367Z,25120.00
2018-07-29T07:13:13.321Z,24928.00
2018-07-29T07:14:13.291Z,24768.00
2018-07-29T07:15:13.245Z,25760.00
2018-07-29T07:16:22.439Z,26464.00
2018-07-29T07:17:13.211Z,29376.00
2018-07-29T07:18:13.256Z,31808.00
2018-07-29T07:19:13.115Z,29120.00
2018-07-29T07:20:13.077Z,28224.00
2018-07-29T07:21:13.042Z,29728.00
2018-07-29T07:22:13.028Z,29632.00
2018-07-29T07:23:13.006Z,29184.00
2018-07-29T07:24:12.952Z,30048.00
2018-07-29T07:25:12.917Z,29312.00
2018-07-29T07:26:12.903Z,30976.00
2018-07-29T07:27:12.898Z,28512.00
2018-07-29T07:28:12.840Z,32192.00
2018-07-29T07:29:12.789Z,37312.00
2018-07-29T07:30:12.747Z,36032.00
2018-07-29T07:31:12.711Z,43168.00
2018-07-29T07:32:12.679Z,41888.00
2018-07-29T07:33:12.673Z,40256.00
2018-07-29T07:34:12.622Z,26176.00
2018-07-29T07:35:12.594Z,25088.00
2018-07-29T07:36:12.556Z,24288.00
2018-07-29T07:37:12.568Z,25120.00
2018-07-29T07:38:12.516Z,27200.00
2018-07-29T07:39:12.454Z,31712.00
2018-07-29T07:40:12.419Z,32928.00
2018-07-29T07:41:12.393Z,35232.00
2018-07-29T07:42:12.364Z,36352.00
2018-07-29T07:43:12.356Z,31328.00
2018-07-29T07:44:12.297Z,35392.00
2018-07-29T07:45:12.264Z,35872.00
2018-07-29T07:46:12.235Z,37600.00
2018-07-29T07:47:12.204Z,46624.00
2018-07-29T07:48:12.170Z,39328.00
2018-07-29T07:49:12.163Z,49120.00
2018-07-29T07:50:12.097Z,41888.00
2018-07-29T07:51:12.069Z,40256.00
2018-07-29T07:52:12.036Z,40224.00
2018-07-29T07:53:12.006Z,39616.00
2018-07-29T07:54:12.040Z,32448.00
2018-07-29T07:55:11.947Z,28960.00
2018-07-29T07:56:11.913Z,34080.00
2018-07-29T07:57:11.885Z,41056.00
2018-07-29T07:58:11.846Z,35872.00
2018-07-29T07:59:11.817Z,34272.00
2018-07-29T08:00:11.826Z,35840.00
2018-07-29T08:01:11.855Z,39968.00
2018-07-29T08:02:11.749Z,43936.00
2018-07-29T08:03:11.695Z,42944.00
2018-07-29T08:04:11.665Z,35200.00
2018-07-29T08:05:11.651Z,39232.00
2018-07-29T08:06:11.608Z,38464.00
2018-07-29T08:07:11.579Z,38976.00
2018-07-29T08:08:11.650Z,43168.00
2018-07-29T08:09:11.538Z,40928.00
2018-07-29T08:10:11.497Z,41440.00
2018-07-29T08:11:11.441Z,47232.00
2018-07-29T08:12:11.415Z,50080.00
2018-07-29T08:13:11.383Z,53920.00
2018-07-29T08:14:11.365Z,41472.00
2018-07-29T08:15:11.363Z,42880.00
2018-07-29T08:16:11.304Z,39136.00
2018-07-29T08:17:11.267Z,38944.00
2018-07-29T08:18:11.241Z,38976.00
2018-07-29T08:19:11.213Z,38880.00
2018-07-29T08:20:11.180Z,36448.00
2018-07-29T08:21:11.172Z,38304.00
2018-07-29T08:22:11.157Z,39616.00
2018-07-29T08:23:11.084Z,36928.00
2018-07-29T08:24:11.053Z,35296.00
2018-07-29T08:25:11.020Z,30080.00
2018-07-29T08:26:11.022Z,34560.00
2018-07-29T08:27:10.965Z,36192.00
2018-07-29T08:28:10.957Z,35264.00
2018-07-29T08:29:10.908Z,46976.00
2018-07-29T08:30:10.871Z,46048.00
2018-07-29T08:31:10.867Z,50144.00
2018-07-29T08:32:10.813Z,47520.00
2018-07-29T08:33:21.005Z,46016.00
2018-07-29T08:34:10.754Z,55040.00
2018-07-29T08:35:10.722Z,43648.00
2018-07-29T08:36:10.690Z,38720.00
2018-07-29T08:37:10.688Z,50144.00
2018-07-29T08:38:10.634Z,34176.00
2018-07-29T08:39:10.607Z,49056.00
2018-07-29T08:40:10.566Z,33440.00
2018-07-29T08:41:10.538Z,31776.00
2018-07-29T08:42:10.528Z,32768.00
2018-07-29T08:43:10.475Z,32832.00
2018-07-29T08:44:10.454Z,32832.00
2018-07-29T08:45:10.510Z,33024.00
2018-07-29T08:46:10.390Z,42752.00
2018-07-29T08:47:10.381Z,32800.00
2018-07-29T08:48:10.333Z,31840.00
2018-07-29T08:49:10.307Z,31584.00
2018-07-29T08:50:10.272Z,33280.00
2018-07-29T08:51:10.241Z,35264.00
2018-07-29T08:52:10.254Z,54592.00
2018-07-29T08:53:10.192Z,38912.00
2018-07-29T08:54:10.148Z,40416.00
2018-07-29T08:55:10.113Z,37920.00
2018-07-29T08:56:10.088Z,40704.00
2018-07-29T08:57:10.060Z,41888.00
2018-07-29T08:58:10.093Z,39872.00
2018-07-29T08:59:10.002Z,40032.00
2018-07-29T09:00:09.959Z,42784.00
2018-07-29T09:01:10.014Z,36768.00
2018-07-29T09:02:09.909Z,36256.00
2018-07-29T09:03:09.901Z,46880.00
2018-07-29T09:04:09.847Z,35168.00
2018-07-29T09:05:09.810Z,45792.00
2018-07-29T09:06:09.780Z,35776.00
2018-07-29T09:07:09.751Z,38752.00
2018-07-29T09:08:09.753Z,37920.00
2018-07-29T09:09:09.693Z,52288.00
2018-07-29T09:10:09.670Z,55840.00
2018-07-29T09:11:20.056Z,38272.00
2018-07-29T09:12:09.601Z,38272.00
2018-07-29T09:13:09.566Z,55168.00
2018-07-29T09:14:09.598Z,39520.00
2018-07-29T09:15:09.515Z,45664.00
2018-07-29T09:16:09.476Z,42976.00
2018-07-29T09:17:09.479Z,56704.00
2018-07-29T09:18:09.422Z,53984.00
2018-07-29T09:19:09.419Z,59616.00
2018-07-29T09:20:09.366Z,42080.00
2018-07-29T09:21:09.338Z,36928.00
2018-07-29T09:22:09.327Z,33696.00
2018-07-29T09:23:09.271Z,31904.00
2018-07-29T09:24:09.278Z,31712.00
2018-07-29T09:25:09.213Z,32800.00
2018-07-29T09:26:09.186Z,35424.00
2018-07-29T09:27:09.162Z,39552.00
2018-07-29T09:28:09.127Z,36288.00
2018-07-29T09:29:19.122Z,37088.00
2018-07-29T09:30:09.082Z,51392.00
2018-07-29T09:31:09.041Z,41088.00
2018-07-29T09:32:09.003Z,32032.00
2018-07-29T09:33:08.975Z,33184.00
2018-07-29T09:34:08.948Z,37024.00
2018-07-29T09:35:08.939Z,37408.00
2018-07-29T09:36:08.895Z,32768.00
2018-07-29T09:37:08.863Z,32352.00
2018-07-29T09:38:08.842Z,31680.00
2018-07-29T09:39:08.805Z,29632.00
2018-07-29T09:40:08.788Z,27552.00
2018-07-29T09:41:08.737Z,32896.00
2018-07-29T09:42:08.710Z,31872.00
2018-07-29T09:43:08.676Z,30496.00
2018-07-29T09:44:08.649Z,29024.00
2018-07-29T09:45:08.714Z,28896.00
2018-07-29T09:46:08.585Z,29216.00
2018-07-29T09:47:08.560Z,29888.00
2018-07-29T09:48:08.531Z,30528.00
2018-07-29T09:49:08.506Z,30464.00
2018-07-29T09:50:08.487Z,29504.00
2018-07-29T09:51:08.465Z,28544.00
2018-07-29T09:52:08.403Z,28128.00
2018-07-29T09:53:08.382Z,28384.00
2018-07-29T09:54:08.345Z,29088.00
2018-07-29T09:55:08.314Z,29568.00
2018-07-29T09:56:08.316Z,30176.00
2018-07-29T09:57:08.265Z,30304.00
2018-07-29T09:58:08.230Z,29792.00
2018-07-29T09:59:08.198Z,28288.00
2018-07-29T10:00:08.187Z,26912.00
2018-07-29T10:01:08.131Z,26336.00
2018-07-29T10:02:08.106Z,26272.00
2018-07-29T10:03:08.147Z,26496.00
2018-07-29T10:04:08.037Z,27040.00
2018-07-29T10:05:08.030Z,27872.00
2018-07-29T10:06:07.980Z,28672.00
2018-07-29T10:07:07.947Z,29664.00
2018-07-29T10:08:07.920Z,30144.00
2018-07-29T10:09:07.889Z,31808.00
2018-07-29T10:10:07.857Z,33280.00
2018-07-29T10:11:07.847Z,31424.00
2018-07-29T10:12:07.787Z,30624.00
2018-07-29T10:13:07.777Z,30144.00
2018-07-29T10:14:07.747Z,29760.00
2018-07-29T10:15:07.694Z,29568.00
2018-07-29T10:16:07.697Z,29600.00
2018-07-29T10:17:07.640Z,29632.00
2018-07-29T10:18:07.601Z,29856.00
2018-07-29T10:19:07.580Z,30144.00
2018-07-29T10:20:07.548Z,30432.00
2018-07-29T10:21:07.601Z,30176.00
2018-07-29T10:22:07.484Z,29856.00
2018-07-29T10:23:07.453Z,29984.00
2018-07-29T10:24:07.415Z,30432.00
2018-07-29T10:25:07.406Z,31200.00
2018-07-29T10:26:07.353Z,32576.00
2018-07-29T10:27:07.343Z,33792.00
2018-07-29T10:28:18.662Z,33600.00
2018-07-29T10:29:07.287Z,31968.00
2018-07-29T10:30:07.229Z,30336.00
2018-07-29T10:31:07.199Z,28672.00
2018-07-29T10:32:07.192Z,26944.00
2018-07-29T10:33:07.140Z,25344.00
2018-07-29T10:34:07.103Z,24224.00
2018-07-29T10:35:07.074Z,24032.00
2018-07-29T10:36:07.040Z,24608.00
2018-07-29T10:37:07.032Z,25632.00
2018-07-29T10:38:06.986Z,26528.00
2018-07-29T10:39:06.954Z,27328.00
2018-07-29T10:40:06.919Z,28256.00
2018-07-29T10:41:06.887Z,28960.00
2018-07-29T10:42:06.851Z,29472.00
2018-07-29T10:43:06.849Z,29792.00
2018-07-29T10:44:06.788Z,30144.00
2018-07-29T10:45:06.759Z,32128.00
2018-07-29T10:46:06.732Z,34464.00
2018-07-29T10:47:06.703Z,35840.00
2018-07-29T10:48:06.683Z,40608.00
2018-07-29T10:49:06.631Z,42496.00
2018-07-29T10:50:06.603Z,45792.00
2018-07-29T10:51:06.575Z,46272.00
2018-07-29T10:52:06.539Z,41312.00
2018-07-29T10:53:06.543Z,36800.00
2018-07-29T10:54:06.472Z,36352.00
2018-07-29T10:55:06.441Z,38464.00
2018-07-29T10:56:06.410Z,46816.00
2018-07-29T10:57:06.380Z,54752.00
2018-07-29T10:58:06.381Z,48928.00
2018-07-29T10:59:06.328Z,54976.00
2018-07-29T11:00:06.292Z,47552.00
2018-07-29T11:01:06.260Z,44352.00
2018-07-29T11:02:06.228Z,50464.00
2018-07-29T11:03:06.198Z,41792.00
2018-07-29T11:04:06.199Z,38240.00
2018-07-29T11:05:06.263Z,37568.00
2018-07-29T11:06:06.111Z,36960.00
2018-07-29T11:07:06.076Z,37216.00
2018-07-29T11:08:06.048Z,35872.00
2018-07-29T11:09:06.043Z,37696.00
2018-07-29T11:10:06.000Z,36160.00
2018-07-29T11:11:05.979Z,37888.00
2018-07-29T11:12:05.934Z,41632.00
2018-07-29T11:13:05.906Z,38784.00
2018-07-29T11:14:05.911Z,44128.00
2018-07-29T11:15:05.843Z,35712.00
2018-07-29T11:16:05.814Z,33664.00
2018-07-29T11:17:05.784Z,37216.00
2018-07-29T11:18:05.764Z,31040.00
2018-07-29T11:19:05.734Z,30240.00
2018-07-29T11:20:05.722Z,29536.00
2018-07-29T11:21:05.770Z,28352.00
2018-07-29T11:22:05.642Z,27296.00
2018-07-29T11:23:05.613Z,26624.00
2018-07-29T11:24:05.584Z,26688.00
2018-07-29T11:25:05.589Z,26784.00
2018-07-29T11:26:05.520Z,27072.00
2018-07-29T11:27:15.715Z,27264.00
2018-07-29T11:28:05.504Z,27072.00
2018-07-29T11:29:05.437Z,27264.00
2018-07-29T11:30:05.428Z,28320.00
2018-07-29T11:31:05.382Z,29696.00
2018-07-29T11:32:05.337Z,31296.00
2018-07-29T11:33:05.304Z,33632.00
2018-07-29T11:34:05.284Z,35776.00
2018-07-29T11:35:05.285Z,35968.00
2018-07-29T11:36:05.309Z,35872.00
2018-07-29T11:37:05.182Z,34688.00
2018-07-29T11:38:05.235Z,34144.00
2018-07-29T11:39:05.127Z,33216.00
2018-07-29T11:40:05.145Z,32672.00
2018-07-29T11:41:05.067Z,32128.00
2018-07-29T11:42:05.039Z,31264.00
2018-07-29T11:43:05.039Z,30336.00
2018-07-29T11:44:04.966Z,29952.00
2018-07-29T11:45:04.954Z,30432.00
2018-07-29T11:46:04.929Z,31872.00
2018-07-29T11:47:04.875Z,30944.00
2018-07-29T11:48:04.852Z,30624.00
2018-07-29T11:49:04.822Z,29984.00
2018-07-29T11:50:04.782Z,29376.00
2018-07-29T11:51:04.779Z,28448.00
2018-07-29T11:52:04.730Z,27296.00
2018-07-29T11:53:04.699Z,26144.00
2018-07-29T11:54:04.671Z,25280.00
2018-07-29T11:55:04.653Z,24704.00
2018-07-29T11:56:04.602Z,24576.00
2018-07-29T11:57:04.592Z,24672.00
2018-07-29T11:58:04.537Z,24608.00
2018-07-29T11:59:04.503Z,24224.00
2018-07-29T12:00:04.481Z,23808.00
2018-07-29T12:01:04.450Z,23904.00
2018-07-29T12:02:04.438Z,24000.00
2018-07-29T12:03:04.405Z,23872.00
2018-07-29T12:04:04.375Z,23488.00
2018-07-29T12:05:04.316Z,23072.00
2018-07-29T12:06:15.773Z,22720.00
2018-07-29T12:07:04.278Z,22624.00
2018-07-29T12:08:04.218Z,22912.00
2018-07-29T12:09:04.185Z,24640.00
2018-07-29T12:10:04.169Z,25632.00
2018-07-29T12:11:04.132Z,26112.00
2018-07-29T12:12:04.124Z,26208.00
2018-07-29T12:13:04.066Z,25664.00
2018-07-29T12:14:04.030Z,25600.00